Main page
METAR-TAF:

METAR-TAF

Airports :

Sheremetyevo International Airport

Moscow-Sheremetyevo, Russia

latitude: 55-58N, longitude: 037-25E, elevation: 190 m

Current weather observation

The report was made 18 minutes ago, at 00:00 UTC
Wind 8 kt from the South/Southwest
Temperature 4°C
Humidity 52%
Pressure 1024 hPa
Visibility 10 km or more
no clouds below 1500 m and no cumulonimbus

METAR: UUEE 110000Z 21004MPS CAVOK 04/M05 Q1024 R24L/CLRD62 NOSIG

Time: 03:18 (00:18 UTC)

Forecast

The report was made 1 hour and 27 minutes ago, at 22:51 UTC
Forecast valid from 11 at 00 UTC to 11 at 24 UTC
Wind 6 kt from the South/Southeast
Visibility 10 km or more
Scattered clouds at a height of 3000 ft
Temporary
from 11 at 07 UTC to 11 at 12 UTC
Wind 16 kt from the South

TAF: UUEE 102251Z 1100/1124 16003MPS 9999 SCT030 TX15/1112Z TN00/1103Z TEMPO 1107/1112 19008MPS

Weather observations and forecasts of more than 4000 airports (METAR and TAF reports).

The available stations are represented by yellow and red dots on the map.

Hover mouse over dot to see the name of the station.

Then click to see weather observations and forecasts.

To change the map : click on the green buttons with a black cross to zoom in, on the green button with a dash to zoom out, or on the green arrows for adjacent maps.


METAR-TAF: